createdAt,value
2017-03-17T00:00:26.400Z,0
2017-03-17T00:01:28.241Z,0
2017-03-17T00:02:30.103Z,0
2017-03-17T00:03:31.947Z,0
2017-03-17T00:04:33.810Z,0
2017-03-17T00:05:35.653Z,0
2017-03-17T00:06:37.518Z,0
2017-03-17T00:07:39.707Z,0
2017-03-17T00:08:41.552Z,0
2017-03-17T00:09:43.403Z,0
2017-03-17T00:10:45.249Z,0
2017-03-17T00:11:47.097Z,0
2017-03-17T00:12:48.952Z,0
2017-03-17T00:13:50.825Z,0
2017-03-17T00:14:52.668Z,0
2017-03-17T00:15:54.515Z,0
2017-03-17T00:16:56.704Z,0
2017-03-17T00:17:58.889Z,0
2017-03-17T00:19:00.738Z,0
2017-03-17T00:20:02.591Z,0
2017-03-17T00:21:04.456Z,0
2017-03-17T00:22:06.310Z,0
2017-03-17T00:23:08.840Z,0
2017-03-17T00:24:10.693Z,0
2017-03-17T00:25:12.545Z,0
2017-03-17T00:26:14.405Z,0
2017-03-17T00:27:16.252Z,0
2017-03-17T00:28:18.110Z,0
2017-03-17T00:29:19.962Z,0
2017-03-17T00:30:21.811Z,0
2017-03-17T00:31:23.663Z,0
2017-03-17T00:32:25.513Z,0
2017-03-17T00:33:27.356Z,0
2017-03-17T00:34:29.222Z,0
2017-03-17T00:35:31.072Z,0
2017-03-17T00:36:32.917Z,0
2017-03-17T00:37:34.768Z,0
2017-03-17T00:38:36.620Z,0
2017-03-17T00:39:38.474Z,0
2017-03-17T00:40:40.322Z,0
2017-03-17T00:41:42.520Z,0
2017-03-17T00:42:44.364Z,0
2017-03-17T00:43:46.249Z,0
2017-03-17T00:44:48.096Z,0
2017-03-17T00:45:49.982Z,0
2017-03-17T00:46:51.828Z,0
2017-03-17T00:47:53.678Z,0
2017-03-17T00:48:55.529Z,0
2017-03-17T00:49:57.384Z,0
2017-03-17T00:50:59.242Z,0
2017-03-17T00:52:01.088Z,0
2017-03-17T00:53:02.930Z,0
2017-03-17T00:54:04.790Z,0
2017-03-17T00:55:06.641Z,0
2017-03-17T00:56:08.485Z,0
2017-03-17T00:57:10.332Z,0
2017-03-17T00:58:12.180Z,0
2017-03-17T00:59:14.029Z,0
2017-03-17T01:00:15.874Z,0
2017-03-17T01:01:17.726Z,0
2017-03-17T01:02:19.589Z,0
2017-03-17T01:03:21.464Z,0
2017-03-17T01:04:23.314Z,0
2017-03-17T01:05:25.162Z,0
2017-03-17T01:06:27.014Z,0
2017-03-17T01:07:28.867Z,0
2017-03-17T01:08:30.714Z,0
2017-03-17T01:09:32.580Z,0
2017-03-17T01:10:34.426Z,0
2017-03-17T01:11:36.280Z,0
2017-03-17T01:12:38.132Z,0
2017-03-17T01:13:40.319Z,0
2017-03-17T01:14:42.171Z,0
2017-03-17T01:15:44.033Z,0
2017-03-17T01:16:45.882Z,0
2017-03-17T01:17:48.067Z,0
2017-03-17T01:18:49.916Z,0
2017-03-17T01:19:51.771Z,0
2017-03-17T01:20:53.636Z,0
2017-03-17T01:21:55.487Z,0
2017-03-17T01:22:57.694Z,0
2017-03-17T01:23:59.875Z,0
2017-03-17T01:25:01.732Z,0
2017-03-17T01:26:03.577Z,0
2017-03-17T01:27:05.428Z,0
2017-03-17T01:28:07.287Z,0
2017-03-17T01:29:09.130Z,0
2017-03-17T01:30:11.017Z,0
2017-03-17T01:31:12.861Z,0
2017-03-17T01:32:14.725Z,0
2017-03-17T01:33:16.565Z,0
2017-03-17T01:34:18.416Z,0
2017-03-17T01:35:20.623Z,0
2017-03-17T01:36:22.811Z,0
2017-03-17T01:37:25.009Z,0
2017-03-17T01:38:26.866Z,0
2017-03-17T01:39:28.714Z,0
2017-03-17T01:40:30.568Z,0
2017-03-17T01:41:32.418Z,0
2017-03-17T01:42:34.272Z,0
2017-03-17T01:43:36.120Z,0
2017-03-17T01:44:38.309Z,0
2017-03-17T01:45:40.159Z,0
2017-03-17T01:46:42.001Z,0
2017-03-17T01:47:43.859Z,0
2017-03-17T01:48:45.704Z,0
2017-03-17T01:49:47.548Z,0
2017-03-17T01:50:49.731Z,0
2017-03-17T01:51:51.569Z,0
2017-03-17T01:52:53.418Z,0
2017-03-17T01:53:55.266Z,0
2017-03-17T01:54:57.114Z,0
2017-03-17T01:55:58.957Z,0
2017-03-17T01:57:00.807Z,0
2017-03-17T01:58:02.656Z,0
2017-03-17T01:59:04.508Z,0
2017-03-17T02:00:06.362Z,0
2017-03-17T02:01:08.232Z,0
2017-03-17T02:02:10.080Z,0
2017-03-17T02:03:11.932Z,0
2017-03-17T02:04:13.788Z,0
2017-03-17T02:05:15.630Z,0
2017-03-17T02:06:17.485Z,0
2017-03-17T02:07:19.341Z,0
2017-03-17T02:08:21.527Z,0
2017-03-17T02:09:23.377Z,0
2017-03-17T02:10:25.221Z,0
2017-03-17T02:11:27.077Z,0
2017-03-17T02:12:28.938Z,0
2017-03-17T02:13:30.810Z,0
2017-03-17T02:14:32.654Z,0
2017-03-17T02:15:34.831Z,0
2017-03-17T02:16:36.689Z,0
2017-03-17T02:17:38.539Z,0
2017-03-17T02:18:40.734Z,0
2017-03-17T02:19:42.593Z,0
2017-03-17T02:20:44.445Z,0
2017-03-17T02:21:46.308Z,0
2017-03-17T02:22:48.154Z,0
2017-03-17T02:23:50.003Z,0
2017-03-17T02:24:51.859Z,0
2017-03-17T02:25:53.707Z,0
2017-03-17T02:26:55.568Z,0
2017-03-17T02:27:57.420Z,0
2017-03-17T02:28:59.272Z,0
2017-03-17T02:30:01.117Z,0
2017-03-17T02:31:02.973Z,0
2017-03-17T02:32:04.819Z,0
2017-03-17T02:33:06.994Z,0
2017-03-17T02:34:08.844Z,0
2017-03-17T02:35:10.694Z,0
2017-03-17T02:36:12.658Z,0
2017-03-17T02:37:14.853Z,0
2017-03-17T02:38:16.701Z,0
2017-03-17T02:39:18.899Z,0
2017-03-17T02:40:20.748Z,0
2017-03-17T02:41:22.600Z,0
2017-03-17T02:42:24.449Z,0
2017-03-17T02:43:26.306Z,0
2017-03-17T02:44:28.842Z,0
2017-03-17T02:45:31.035Z,0
2017-03-17T02:46:32.872Z,0
2017-03-17T02:47:35.083Z,0
2017-03-17T02:48:36.925Z,0
2017-03-17T02:49:38.813Z,0
2017-03-17T02:50:40.668Z,0
2017-03-17T02:51:42.857Z,0
2017-03-17T02:52:45.050Z,0
2017-03-17T02:53:47.589Z,0
2017-03-17T02:54:49.813Z,0
2017-03-17T02:55:51.660Z,0
2017-03-17T02:56:53.844Z,0
2017-03-17T02:57:55.701Z,0
2017-03-17T02:58:58.588Z,0
2017-03-17T03:00:01.113Z,0
2017-03-17T03:01:02.966Z,0
2017-03-17T03:02:04.810Z,0
2017-03-17T03:03:06.677Z,0
2017-03-17T03:04:08.527Z,0
2017-03-17T03:05:10.757Z,0
2017-03-17T03:06:12.613Z,0
2017-03-17T03:07:14.470Z,0
2017-03-17T03:08:16.321Z,0
2017-03-17T03:09:18.172Z,0
2017-03-17T03:10:20.024Z,0
2017-03-17T03:11:21.879Z,0
2017-03-17T03:12:23.729Z,0
2017-03-17T03:13:25.611Z,0
2017-03-17T03:14:27.457Z,0
2017-03-17T03:15:29.653Z,0
2017-03-17T03:16:31.512Z,0
2017-03-17T03:17:33.726Z,0
2017-03-17T03:18:35.580Z,0
2017-03-17T03:19:37.441Z,0
2017-03-17T03:20:39.634Z,0
2017-03-17T03:21:41.495Z,0
2017-03-17T03:22:43.344Z,0
2017-03-17T03:23:45.195Z,0
2017-03-17T03:24:47.724Z,0
2017-03-17T03:25:49.587Z,0
2017-03-17T03:26:51.444Z,0
2017-03-17T03:27:53.292Z,0
2017-03-17T03:28:55.496Z,0
2017-03-17T03:29:57.351Z,0
2017-03-17T03:30:59.222Z,0
2017-03-17T03:32:01.074Z,0
2017-03-17T03:33:02.924Z,0
2017-03-17T03:34:04.774Z,0
2017-03-17T03:35:06.623Z,0
2017-03-17T03:36:08.499Z,0
2017-03-17T03:37:10.346Z,0
2017-03-17T03:38:12.197Z,0
2017-03-17T03:39:14.046Z,0
2017-03-17T03:40:15.904Z,0
2017-03-17T03:41:17.755Z,0
2017-03-17T03:42:19.609Z,0
2017-03-17T03:43:21.463Z,0
2017-03-17T03:44:23.638Z,0
2017-03-17T03:45:25.500Z,0
2017-03-17T03:46:27.353Z,0
2017-03-17T03:47:29.203Z,0
2017-03-17T03:48:31.050Z,0
2017-03-17T03:49:33.603Z,0
2017-03-17T03:50:35.451Z,0
2017-03-17T03:51:37.309Z,0
2017-03-17T03:52:39.164Z,0
2017-03-17T03:53:41.017Z,0
2017-03-17T03:54:43.585Z,0
2017-03-17T03:55:45.441Z,0
2017-03-17T03:56:47.326Z,0
2017-03-17T03:57:49.183Z,0
2017-03-17T03:58:51.394Z,0
2017-03-17T03:59:53.590Z,0
2017-03-17T04:00:55.777Z,0
2017-03-17T04:01:57.650Z,0
2017-03-17T04:02:59.834Z,0
2017-03-17T04:04:01.699Z,0
2017-03-17T04:05:03.893Z,0
2017-03-17T04:06:05.748Z,0
2017-03-17T04:07:07.593Z,0
2017-03-17T04:08:09.789Z,0
2017-03-17T04:09:11.634Z,0
2017-03-17T04:10:13.834Z,0
2017-03-17T04:11:15.681Z,0
2017-03-17T04:12:17.541Z,0
2017-03-17T04:13:19.394Z,0
2017-03-17T04:14:21.938Z,0
2017-03-17T04:15:23.795Z,0
2017-03-17T04:16:25.638Z,0
2017-03-17T04:17:27.500Z,0
2017-03-17T04:18:29.350Z,0
2017-03-17T04:19:31.554Z,0
2017-03-17T04:20:33.407Z,0
2017-03-17T04:21:35.264Z,0
2017-03-17T04:22:37.108Z,0
2017-03-17T04:23:38.958Z,0
2017-03-17T04:24:41.483Z,0
2017-03-17T04:25:43.342Z,0
2017-03-17T04:26:45.189Z,0
2017-03-17T04:27:47.040Z,0
2017-03-17T04:28:49.586Z,0
2017-03-17T04:29:51.456Z,0
2017-03-17T04:30:53.660Z,0
2017-03-17T04:31:55.865Z,0
2017-03-17T04:32:57.710Z,0
2017-03-17T04:33:59.927Z,0
2017-03-17T04:35:01.783Z,0
2017-03-17T04:36:03.627Z,0
2017-03-17T04:37:05.477Z,0
2017-03-17T04:38:07.327Z,0
2017-03-17T04:39:09.195Z,0
2017-03-17T04:40:11.380Z,0
2017-03-17T04:41:13.566Z,0
2017-03-17T04:42:15.419Z,0
2017-03-17T04:43:17.265Z,0
2017-03-17T04:44:19.161Z,0
2017-03-17T04:45:21.343Z,0
2017-03-17T04:46:23.195Z,1
2017-03-17T04:47:25.387Z,1
2017-03-17T04:48:27.250Z,1
2017-03-17T04:49:29.492Z,2
2017-03-17T04:50:31.343Z,2
2017-03-17T04:51:33.196Z,3
2017-03-17T04:52:35.046Z,1
2017-03-17T04:53:36.906Z,3
2017-03-17T04:54:39.446Z,3
2017-03-17T04:55:41.299Z,3
2017-03-17T04:56:43.500Z,4
2017-03-17T04:57:45.355Z,5
2017-03-17T04:58:47.207Z,6
2017-03-17T04:59:49.061Z,8
2017-03-17T05:00:50.912Z,9
2017-03-17T05:01:53.116Z,10
2017-03-17T05:02:54.967Z,14
2017-03-17T05:03:56.813Z,16
2017-03-17T05:04:59.024Z,20
2017-03-17T05:06:00.883Z,25
2017-03-17T05:07:02.735Z,27
2017-03-17T05:08:04.589Z,32
2017-03-17T05:09:06.445Z,37
2017-03-17T05:10:08.627Z,42
2017-03-17T05:11:10.475Z,45
2017-03-17T05:12:12.330Z,49
2017-03-17T05:13:14.181Z,49
2017-03-17T05:14:16.029Z,45
2017-03-17T05:15:18.228Z,47
2017-03-17T05:16:20.072Z,52
2017-03-17T05:17:21.933Z,53
2017-03-17T05:18:23.790Z,58
2017-03-17T05:19:25.632Z,66
2017-03-17T05:20:27.517Z,60
2017-03-17T05:21:29.362Z,69
2017-03-17T05:22:31.222Z,83
2017-03-17T05:23:33.065Z,87
2017-03-17T05:24:34.929Z,83
2017-03-17T05:25:36.819Z,95
2017-03-17T05:26:38.670Z,102
2017-03-17T05:27:40.861Z,136
2017-03-17T05:28:43.052Z,172
2017-03-17T05:29:45.287Z,168
2017-03-17T05:30:47.152Z,162
2017-03-17T05:31:49.330Z,166
2017-03-17T05:32:51.184Z,177
2017-03-17T05:33:53.055Z,202
2017-03-17T05:34:54.915Z,233
2017-03-17T05:35:57.138Z,251
2017-03-17T05:36:59.109Z,278
2017-03-17T05:38:00.958Z,271
2017-03-17T05:39:03.149Z,287
2017-03-17T05:40:05.691Z,291
2017-03-17T05:41:07.899Z,366
2017-03-17T05:42:09.746Z,499
2017-03-17T05:43:11.615Z,632
2017-03-17T05:44:13.810Z,732
2017-03-17T05:45:16.002Z,840
2017-03-17T05:46:17.852Z,887
2017-03-17T05:47:20.050Z,925
2017-03-17T05:48:22.248Z,863
2017-03-17T05:49:24.099Z,714
2017-03-17T05:50:25.952Z,533
2017-03-17T05:51:27.799Z,425
2017-03-17T05:52:29.657Z,440
2017-03-17T05:53:31.509Z,406
2017-03-17T05:54:33.368Z,371
2017-03-17T05:55:35.213Z,407
2017-03-17T05:56:37.058Z,301
2017-03-17T05:57:39.268Z,256
2017-03-17T05:58:41.146Z,246
2017-03-17T05:59:43.338Z,246
2017-03-17T06:00:45.182Z,223
2017-03-17T06:01:47.039Z,233
2017-03-17T06:02:48.886Z,245
2017-03-17T06:03:50.742Z,293
2017-03-17T06:04:52.942Z,319
2017-03-17T06:05:55.821Z,312
2017-03-17T06:06:57.681Z,378
2017-03-17T06:07:59.534Z,540
2017-03-17T06:09:01.383Z,391
2017-03-17T06:10:03.586Z,329
2017-03-17T06:11:05.454Z,418
2017-03-17T06:12:07.645Z,686
2017-03-17T06:13:09.495Z,749
2017-03-17T06:14:12.403Z,839
2017-03-17T06:15:14.258Z,627
2017-03-17T06:16:16.106Z,454
2017-03-17T06:17:17.963Z,538
2017-03-17T06:18:19.810Z,535
2017-03-17T06:19:21.672Z,571
2017-03-17T06:20:23.878Z,534
2017-03-17T06:21:25.726Z,520
2017-03-17T06:22:27.576Z,607
2017-03-17T06:23:29.428Z,600
2017-03-17T06:24:31.643Z,708
2017-03-17T06:25:33.833Z,695
2017-03-17T06:26:35.686Z,693
2017-03-17T06:27:37.876Z,633
2017-03-17T06:28:40.090Z,495
2017-03-17T06:29:41.944Z,468
2017-03-17T06:30:43.800Z,455
2017-03-17T06:31:45.653Z,514
2017-03-17T06:32:47.844Z,454
2017-03-17T06:33:50.045Z,449
2017-03-17T06:34:51.909Z,447
2017-03-17T06:35:54.102Z,422
2017-03-17T06:36:55.959Z,447
2017-03-17T06:37:57.810Z,555
2017-03-17T06:38:59.661Z,368
2017-03-17T06:40:01.523Z,341
2017-03-17T06:41:03.376Z,344
2017-03-17T06:42:05.221Z,376
2017-03-17T06:43:07.078Z,426
2017-03-17T06:44:08.934Z,468
2017-03-17T06:45:10.786Z,517
2017-03-17T06:46:12.963Z,593
2017-03-17T06:47:15.154Z,572
2017-03-17T06:48:17.017Z,567
2017-03-17T06:49:18.878Z,702
2017-03-17T06:50:21.128Z,690
2017-03-17T06:51:22.983Z,685
2017-03-17T06:52:24.833Z,765
2017-03-17T06:53:26.684Z,727
2017-03-17T06:54:28.868Z,796
2017-03-17T06:55:30.719Z,959
2017-03-17T06:56:32.564Z,1091
2017-03-17T06:57:34.424Z,1028
2017-03-17T06:58:37.293Z,1129
2017-03-17T06:59:39.159Z,1220
2017-03-17T07:00:41.006Z,1343
2017-03-17T07:01:42.860Z,1778
2017-03-17T07:02:44.714Z,1900
2017-03-17T07:03:46.899Z,1815
2017-03-17T07:04:49.769Z,2153
2017-03-17T07:05:51.968Z,2329
2017-03-17T07:06:53.821Z,2419
2017-03-17T07:07:55.705Z,2864
2017-03-17T07:08:57.914Z,3286
2017-03-17T07:10:00.113Z,3444
2017-03-17T07:11:01.965Z,3721
2017-03-17T07:12:03.812Z,4457
2017-03-17T07:13:06.004Z,4813
2017-03-17T07:14:08.192Z,4899
2017-03-17T07:15:10.053Z,5020
2017-03-17T07:16:11.908Z,5155
2017-03-17T07:17:13.759Z,5227
2017-03-17T07:18:15.629Z,5109
2017-03-17T07:19:17.486Z,5229
2017-03-17T07:20:19.690Z,5531
2017-03-17T07:21:21.548Z,5856
2017-03-17T07:22:23.397Z,5955
2017-03-17T07:23:25.253Z,6025
2017-03-17T07:24:27.436Z,5845
2017-03-17T07:25:29.634Z,5667
2017-03-17T07:26:31.821Z,5608
2017-03-17T07:27:33.677Z,5695
2017-03-17T07:28:35.870Z,5418
2017-03-17T07:29:38.753Z,5565
2017-03-17T07:30:40.604Z,6238
2017-03-17T07:31:42.456Z,6342
2017-03-17T07:32:44.313Z,6190
2017-03-17T07:33:46.849Z,6236
2017-03-17T07:34:49.389Z,5888
2017-03-17T07:35:51.254Z,7211
2017-03-17T07:36:53.108Z,7812
2017-03-17T07:37:54.970Z,8455
2017-03-17T07:38:57.176Z,9209
2017-03-17T07:39:59.384Z,10071
2017-03-17T07:41:01.238Z,10668
2017-03-17T07:42:03.096Z,10368
2017-03-17T07:43:05.289Z,9709
2017-03-17T07:44:07.512Z,8834
2017-03-17T07:45:09.362Z,10201
2017-03-17T07:46:11.217Z,9946
2017-03-17T07:47:13.058Z,10079
2017-03-17T07:48:14.912Z,10385
2017-03-17T07:49:16.767Z,9606
2017-03-17T07:50:19.323Z,9049
2017-03-17T07:51:21.164Z,8820
2017-03-17T07:52:23.024Z,9372
2017-03-17T07:53:24.867Z,9908
2017-03-17T07:54:27.745Z,10332
2017-03-17T07:55:29.947Z,9415
2017-03-17T07:56:31.811Z,9114
2017-03-17T07:57:33.665Z,9360
2017-03-17T07:58:35.528Z,9516
2017-03-17T07:59:37.399Z,10769
2017-03-17T08:00:39.243Z,9761
2017-03-17T08:01:41.440Z,8079
2017-03-17T08:02:43.294Z,8607
2017-03-17T08:03:45.173Z,10037
2017-03-17T08:04:47.376Z,11194
2017-03-17T08:05:49.223Z,65536
2017-03-17T08:06:51.081Z,7846
2017-03-17T08:07:52.931Z,10116
2017-03-17T08:08:55.475Z,21300
2017-03-17T08:09:57.334Z,8475
2017-03-17T08:10:59.867Z,9184
2017-03-17T08:12:01.739Z,12995
2017-03-17T08:13:03.958Z,12252
2017-03-17T08:14:06.149Z,11885
2017-03-17T08:15:08.006Z,27385
2017-03-17T08:16:09.883Z,65536
2017-03-17T08:17:11.741Z,65536
2017-03-17T08:18:13.591Z,23847
2017-03-17T08:19:16.140Z,65536
2017-03-17T08:20:18.328Z,65536
2017-03-17T08:21:20.186Z,65536
2017-03-17T08:22:22.036Z,65536
2017-03-17T08:23:23.878Z,32025
2017-03-17T08:24:26.758Z,26758
2017-03-17T08:25:29.303Z,30154
2017-03-17T08:26:31.516Z,26732
2017-03-17T08:27:33.377Z,15162
2017-03-17T08:28:35.564Z,22048
2017-03-17T08:29:37.422Z,65536
2017-03-17T08:30:39.280Z,28256
2017-03-17T08:31:41.476Z,14665
2017-03-17T08:32:43.322Z,17794
2017-03-17T08:33:45.189Z,65536
2017-03-17T08:34:47.051Z,17362
2017-03-17T08:35:49.242Z,25954
2017-03-17T08:36:51.130Z,65536
2017-03-17T08:37:53.320Z,15570
2017-03-17T08:38:55.183Z,65536
2017-03-17T08:39:57.053Z,24028
2017-03-17T08:40:58.919Z,65536
2017-03-17T08:42:00.764Z,65536
2017-03-17T08:43:02.976Z,65536
2017-03-17T08:44:04.857Z,20019
2017-03-17T08:45:07.057Z,65536
2017-03-17T08:46:08.914Z,65536
2017-03-17T08:47:10.757Z,65536
2017-03-17T08:48:12.615Z,65536
2017-03-17T08:49:14.469Z,65536
2017-03-17T08:50:16.332Z,31725
2017-03-17T08:51:18.200Z,30835
2017-03-17T08:52:20.067Z,65536
2017-03-17T08:53:21.922Z,30985
2017-03-17T08:54:23.796Z,30436
2017-03-17T08:55:25.680Z,28204
2017-03-17T08:56:27.565Z,26675
2017-03-17T08:57:29.419Z,26795
2017-03-17T08:58:31.278Z,24364
2017-03-17T08:59:33.136Z,25014
2017-03-17T09:00:34.994Z,23906
2017-03-17T09:01:36.856Z,22038
2017-03-17T09:02:38.706Z,21330
2017-03-17T09:03:40.570Z,21695
2017-03-17T09:04:42.423Z,21765
2017-03-17T09:05:44.612Z,20779
2017-03-17T09:06:46.470Z,19815
2017-03-17T09:07:48.321Z,19524
2017-03-17T09:08:50.868Z,18605
2017-03-17T09:09:52.716Z,20011
2017-03-17T09:10:54.921Z,20018
2017-03-17T09:11:56.777Z,21433
2017-03-17T09:12:58.630Z,21295
2017-03-17T09:14:00.485Z,20677
2017-03-17T09:15:02.338Z,20608
2017-03-17T09:16:04.197Z,21375
2017-03-17T09:17:06.056Z,20998
2017-03-17T09:18:07.899Z,19534
2017-03-17T09:19:09.763Z,23198
2017-03-17T09:20:11.618Z,23371
2017-03-17T09:21:13.474Z,25825
2017-03-17T09:22:15.326Z,26197
2017-03-17T09:23:17.206Z,24174
2017-03-17T09:24:19.418Z,20778
2017-03-17T09:25:21.610Z,18192
2017-03-17T09:26:23.479Z,24815
2017-03-17T09:27:25.335Z,23294
2017-03-17T09:28:27.183Z,18408
2017-03-17T09:29:29.042Z,27009
2017-03-17T09:30:31.229Z,25453
2017-03-17T09:31:33.093Z,19167
2017-03-17T09:32:34.943Z,23163
2017-03-17T09:33:37.162Z,22800
2017-03-17T09:34:39.015Z,21020
2017-03-17T09:35:40.876Z,21915
2017-03-17T09:36:42.729Z,20916
2017-03-17T09:37:44.590Z,22267
2017-03-17T09:38:46.462Z,23632
2017-03-17T09:39:48.328Z,26241
2017-03-17T09:40:50.179Z,26279
2017-03-17T09:41:52.049Z,25580
2017-03-17T09:42:53.893Z,23850
2017-03-17T09:43:55.748Z,27945
2017-03-17T09:44:57.633Z,26524
2017-03-17T09:45:59.512Z,25667
2017-03-17T09:47:01.366Z,26768
2017-03-17T09:48:03.232Z,23839
2017-03-17T09:49:05.090Z,25625
2017-03-17T09:50:06.942Z,26023
2017-03-17T09:51:08.793Z,27925
2017-03-17T09:52:10.653Z,27721
2017-03-17T09:53:12.510Z,26708
2017-03-17T09:54:14.370Z,24277
2017-03-17T09:55:16.912Z,25658
2017-03-17T09:56:18.759Z,24068
2017-03-17T09:57:20.612Z,22186
2017-03-17T09:58:22.469Z,20706
2017-03-17T09:59:24.666Z,18082
2017-03-17T10:00:27.212Z,17705
2017-03-17T10:01:29.076Z,16540
2017-03-17T10:02:30.936Z,17106
2017-03-17T10:03:32.821Z,16932
2017-03-17T10:04:34.665Z,16155
2017-03-17T10:05:36.526Z,15450
2017-03-17T10:06:38.382Z,15060
2017-03-17T10:07:40.248Z,14983
2017-03-17T10:08:42.094Z,14692
2017-03-17T10:09:43.952Z,14744
2017-03-17T10:10:45.810Z,15234
2017-03-17T10:11:47.657Z,15106
2017-03-17T10:12:49.504Z,14814
2017-03-17T10:13:51.365Z,14849
2017-03-17T10:14:53.580Z,14455
2017-03-17T10:15:55.450Z,14020
2017-03-17T10:16:57.306Z,13963
2017-03-17T10:17:59.156Z,14174
2017-03-17T10:19:01.011Z,14362
2017-03-17T10:20:02.861Z,16489
2017-03-17T10:21:05.064Z,18828
2017-03-17T10:22:07.265Z,19842
2017-03-17T10:23:09.126Z,20437
2017-03-17T10:24:10.988Z,20510
2017-03-17T10:25:12.841Z,20698
2017-03-17T10:26:14.693Z,21358
2017-03-17T10:27:16.557Z,18850
2017-03-17T10:28:18.412Z,17860
2017-03-17T10:29:20.307Z,17417
2017-03-17T10:30:22.505Z,18140
2017-03-17T10:31:24.355Z,25488
2017-03-17T10:32:26.211Z,20074
2017-03-17T10:33:28.126Z,17671
2017-03-17T10:34:29.976Z,16555
2017-03-17T10:35:31.863Z,19204
2017-03-17T10:36:33.766Z,21141
2017-03-17T10:37:35.630Z,20510
2017-03-17T10:38:37.499Z,20479
2017-03-17T10:39:40.754Z,65536
2017-03-17T10:40:43.486Z,19913
2017-03-17T10:41:45.360Z,20136
2017-03-17T10:42:47.240Z,22451
2017-03-17T10:43:49.140Z,22723
2017-03-17T10:44:51.419Z,20427
2017-03-17T10:45:53.303Z,17598
2017-03-17T10:46:55.261Z,15624
2017-03-17T10:47:57.133Z,16072
2017-03-17T10:48:59.000Z,16118
2017-03-17T10:50:01.306Z,15532
2017-03-17T10:51:03.174Z,15652
2017-03-17T10:52:05.086Z,16969
2017-03-17T10:53:06.995Z,22393
2017-03-17T10:54:09.217Z,17939
2017-03-17T10:55:11.097Z,19509
2017-03-17T10:56:13.301Z,65536
2017-03-17T10:57:15.158Z,17676
2017-03-17T10:58:17.408Z,18124
2017-03-17T10:59:19.273Z,18937
2017-03-17T11:00:21.146Z,17686
2017-03-17T11:01:23.004Z,20844
2017-03-17T11:02:24.925Z,17387
2017-03-17T11:03:26.794Z,15889
2017-03-17T11:04:28.987Z,12894
2017-03-17T11:05:30.902Z,10024
2017-03-17T11:06:32.789Z,10545
2017-03-17T11:07:35.035Z,12242
2017-03-17T11:08:37.594Z,13531
2017-03-17T11:09:39.456Z,19490
2017-03-17T11:10:41.327Z,20791
2017-03-17T11:11:43.175Z,20364
2017-03-17T11:12:45.413Z,29275
2017-03-17T11:13:47.994Z,20893
2017-03-17T11:14:49.859Z,23433
2017-03-17T11:15:51.727Z,65536
2017-03-17T11:16:53.584Z,65536
2017-03-17T11:17:55.569Z,65536
2017-03-17T11:18:57.782Z,65536
2017-03-17T11:20:00.023Z,29406
2017-03-17T11:21:01.896Z,65536
2017-03-17T11:22:03.742Z,65536
2017-03-17T11:23:05.702Z,65536
2017-03-17T11:24:07.568Z,65536
2017-03-17T11:25:09.440Z,65536
2017-03-17T11:26:11.296Z,65536
2017-03-17T11:27:13.146Z,20939
2017-03-17T11:28:15.006Z,65536
2017-03-17T11:29:17.217Z,25147
2017-03-17T11:30:19.086Z,65536
2017-03-17T11:31:21.298Z,65536
2017-03-17T11:32:23.167Z,25036
2017-03-17T11:33:25.195Z,65536
2017-03-17T11:34:27.924Z,65536
2017-03-17T11:35:29.787Z,65536
2017-03-17T11:36:31.654Z,65536
2017-03-17T11:37:33.923Z,65536
2017-03-17T11:38:35.787Z,27998
2017-03-17T11:39:37.670Z,65536
2017-03-17T11:40:39.528Z,25049
2017-03-17T11:41:41.384Z,27294
2017-03-17T11:42:43.281Z,25603
2017-03-17T11:43:45.159Z,65536
2017-03-17T11:44:47.387Z,65536
2017-03-17T11:45:49.256Z,29538
2017-03-17T11:46:51.110Z,18908
2017-03-17T11:47:52.995Z,65536
2017-03-17T11:48:55.231Z,65536
2017-03-17T11:49:57.443Z,65536
2017-03-17T11:50:59.641Z,65536
2017-03-17T11:52:01.735Z,65536
2017-03-17T11:53:03.600Z,29302
2017-03-17T11:54:05.691Z,65536
2017-03-17T11:55:07.901Z,11180
2017-03-17T11:56:09.864Z,12027
2017-03-17T11:57:11.727Z,65536
2017-03-17T11:58:13.593Z,15638
2017-03-17T11:59:15.554Z,25027
2017-03-17T12:00:17.762Z,65536
2017-03-17T12:01:19.618Z,65536
2017-03-17T12:02:21.819Z,65536
2017-03-17T12:03:24.015Z,65536
2017-03-17T12:04:25.882Z,65536
2017-03-17T12:05:27.741Z,65536
2017-03-17T12:06:29.605Z,32444
2017-03-17T12:07:31.638Z,29977
2017-03-17T12:08:33.689Z,29113
2017-03-17T12:09:35.594Z,28724
2017-03-17T12:10:37.459Z,28697
2017-03-17T12:11:39.321Z,28593
2017-03-17T12:12:44.236Z,28726
2017-03-17T12:13:46.678Z,26588
2017-03-17T12:14:48.564Z,25170
2017-03-17T12:15:50.417Z,24455
2017-03-17T12:16:52.267Z,23481
2017-03-17T12:17:54.143Z,22629
2017-03-17T12:18:56.074Z,21853
2017-03-17T12:19:57.956Z,20901
2017-03-17T12:21:00.169Z,20323
2017-03-17T12:22:02.031Z,19929
2017-03-17T12:23:04.376Z,19666
2017-03-17T12:24:06.580Z,19651
2017-03-17T12:25:08.462Z,19634
2017-03-17T12:26:10.355Z,20328
2017-03-17T12:27:12.421Z,21003
2017-03-17T12:28:14.282Z,20795
2017-03-17T12:29:16.166Z,21069
2017-03-17T12:30:18.091Z,21166
2017-03-17T12:31:20.388Z,21148
2017-03-17T12:32:22.404Z,20814
2017-03-17T12:33:24.259Z,20411
2017-03-17T12:34:27.635Z,20229
2017-03-17T12:35:29.885Z,20270
2017-03-17T12:36:31.801Z,20115
2017-03-17T12:37:34.090Z,19552
2017-03-17T12:38:35.962Z,20022
2017-03-17T12:39:41.507Z,21235
2017-03-17T12:40:45.281Z,20905
2017-03-17T12:41:51.117Z,19450
2017-03-17T12:42:53.576Z,18534
2017-03-17T12:43:58.989Z,17862
2017-03-17T12:45:05.123Z,17701
2017-03-17T12:46:06.994Z,17812
2017-03-17T12:47:08.852Z,16384
2017-03-17T12:48:10.717Z,14261
2017-03-17T12:49:12.576Z,13297
2017-03-17T12:50:14.972Z,11727
2017-03-17T12:51:16.829Z,10444
2017-03-17T12:52:18.697Z,8996
2017-03-17T12:53:21.246Z,10095
2017-03-17T12:54:23.113Z,10053
2017-03-17T12:55:25.325Z,9306
2017-03-17T12:56:27.177Z,10586
2017-03-17T12:57:29.065Z,10664
2017-03-17T12:58:31.213Z,9411
2017-03-17T12:59:33.078Z,8922
2017-03-17T13:00:34.942Z,9861
2017-03-17T13:01:36.814Z,12330
2017-03-17T13:02:38.665Z,14916
2017-03-17T13:03:40.558Z,14466
2017-03-17T13:04:42.459Z,14264
2017-03-17T13:05:44.344Z,15139
2017-03-17T13:06:46.207Z,16496
2017-03-17T13:07:48.307Z,16022
2017-03-17T13:08:50.172Z,14881
2017-03-17T13:09:52.108Z,13316
2017-03-17T13:10:53.994Z,11537
2017-03-17T13:11:55.862Z,9523
2017-03-17T13:12:57.757Z,8336
2017-03-17T13:13:59.977Z,9042
2017-03-17T13:15:01.832Z,10986
2017-03-17T13:16:03.691Z,11077
2017-03-17T13:17:05.551Z,10174
2017-03-17T13:18:07.428Z,10604
2017-03-17T13:19:09.502Z,12302
2017-03-17T13:20:11.354Z,13778
2017-03-17T13:21:13.427Z,12879
2017-03-17T13:22:15.282Z,11846
2017-03-17T13:23:17.139Z,10019
2017-03-17T13:24:19.132Z,10981
2017-03-17T13:25:21.664Z,12300
2017-03-17T13:26:23.534Z,13060
2017-03-17T13:27:25.451Z,13491
2017-03-17T13:28:27.672Z,13366
2017-03-17T13:29:29.898Z,13321
2017-03-17T13:30:31.757Z,14096
2017-03-17T13:31:33.606Z,14519
2017-03-17T13:32:35.470Z,13921
2017-03-17T13:33:37.338Z,12916
2017-03-17T13:34:39.200Z,12071
2017-03-17T13:35:41.090Z,12248
2017-03-17T13:36:43.087Z,11954
2017-03-17T13:37:44.959Z,12018
2017-03-17T13:38:47.167Z,12383
2017-03-17T13:39:49.026Z,12490
2017-03-17T13:40:51.025Z,11907
2017-03-17T13:41:52.901Z,9935
2017-03-17T13:42:54.760Z,8376
2017-03-17T13:43:56.961Z,6404
2017-03-17T13:44:59.264Z,5119
2017-03-17T13:46:01.737Z,4181
2017-03-17T13:47:03.596Z,3213
2017-03-17T13:48:05.451Z,2803
2017-03-17T13:49:07.343Z,2884
2017-03-17T13:50:09.545Z,3923
2017-03-17T13:51:11.436Z,4821
2017-03-17T13:52:13.291Z,6817
2017-03-17T13:53:15.526Z,9969
2017-03-17T13:54:18.098Z,11146
2017-03-17T13:55:20.673Z,10697
2017-03-17T13:56:22.524Z,10561
2017-03-17T13:57:24.400Z,11892
2017-03-17T13:58:26.293Z,15439
2017-03-17T13:59:28.493Z,18916
2017-03-17T14:00:30.523Z,20052
2017-03-17T14:01:32.374Z,23062
2017-03-17T14:02:34.232Z,21362
2017-03-17T14:03:36.445Z,21234
2017-03-17T14:04:38.639Z,22105
2017-03-17T14:05:40.640Z,21731
2017-03-17T14:06:42.508Z,22459
2017-03-17T14:07:44.407Z,21621